Time;durP1;ratioP1;P1;durP2;ratioP2;P2;SDS_P1;SDS_P2;PMS_P1;PMS_P2;Temp;Humidity;BMP_temperature;BMP_pressure;BME280_temperature;BME280_humidity;BME280_pressure;Samples;Min_cycle;Max_cycle;Signal;HPM_P1;HPM_P2
2021/04/10 00:01:25;;;;;;;18.77;9.75;;;4.50;99.90;;;;;;5031857;28;20033;-74
2021/04/10 00:03:51;;;;;;;21.83;10.02;;;4.50;99.90;;;;;;5033726;28;20505;-75
2021/04/10 00:06:17;;;;;;;15.60;9.85;;;4.50;99.90;;;;;;5047691;28;20033;-70
2021/04/10 00:08:42;;;;;;;17.35;10.38;;;4.40;99.90;;;;;;5035883;28;20037;-72
2021/04/10 00:11:08;;;;;;;;;;;4.40;99.90;;;;;;5038712;28;20033;-72
2021/04/10 00:13:34;;;;;;;18.45;9.93;;;4.40;99.90;;;;;;5033573;28;19920;-71
2021/04/10 00:16:00;;;;;;;16.25;9.43;;;4.40;99.90;;;;;;5032533;28;20086;-73
2021/04/10 00:18:26;;;;;;;18.70;10.02;;;4.40;99.90;;;;;;5033630;28;20025;-70
2021/04/10 00:20:51;;;;;;;18.33;10.00;;;4.40;99.90;;;;;;5037701;28;20490;-73
2021/04/10 00:23:17;;;;;;;;;;;4.40;99.90;;;;;;5040982;28;20041;-73
2021/04/10 00:25:43;;;;;;;14.47;8.83;;;4.50;99.90;;;;;;5039027;28;19916;-73
2021/04/10 00:28:09;;;;;;;;;;;4.40;99.90;;;;;;5045489;28;20040;-73
2021/04/10 00:30:34;;;;;;;17.13;8.85;;;4.50;99.90;;;;;;5052948;28;19917;-70
2021/04/10 00:33:00;;;;;;;15.60;9.18;;;4.50;99.90;;;;;;5053328;28;20045;-70
2021/04/10 00:35:28;;;;;;;17.88;9.63;;;4.50;99.90;;;;;;5043633;28;20037;-73
2021/04/10 00:37:57;;;;;;;21.40;11.15;;;4.50;99.90;;;;;;5037296;28;20037;-72
2021/04/10 00:40:24;;;;;;;24.35;10.13;;;4.50;99.90;;;;;;5051350;28;20112;-75
2021/04/10 00:42:50;;;;;;;20.52;10.48;;;4.50;99.90;;;;;;5049587;28;20087;-73
2021/04/10 00:45:16;;;;;;;23.25;11.02;;;4.40;99.90;;;;;;5044317;28;20029;-71
2021/04/10 00:47:42;;;;;;;17.13;10.70;;;4.40;99.90;;;;;;5050308;28;20068;-71
2021/04/10 00:50:09;;;;;;;19.85;10.77;;;4.40;99.90;;;;;;5033241;28;20136;-71
2021/04/10 00:52:37;;;;;;;18.17;9.90;;;4.30;99.90;;;;;;5034965;28;20047;-72
2021/04/10 00:55:06;;;;;;;18.40;10.55;;;4.20;99.90;;;;;;5033577;28;20068;-72
2021/04/10 00:57:32;;;;;;;23.25;12.07;;;4.20;99.90;;;;;;5034069;28;20438;-71
2021/04/10 00:59:58;;;;;;;22.15;11.35;;;4.20;99.90;;;;;;5032858;28;20123;-71
2021/04/10 01:02:26;;;;;;;21.85;11.48;;;4.20;99.90;;;;;;5032461;28;20120;-72
2021/04/10 01:04:53;;;;;;;16.85;10.38;;;4.20;99.90;;;;;;5051373;28;20053;-73
2021/04/10 01:07:20;;;;;;;21.05;11.13;;;4.20;99.90;;;;;;5032805;28;20131;-70
2021/04/10 01:09:50;;;;;;;16.83;9.88;;;4.20;99.90;;;;;;5032913;28;20033;-74
2021/04/10 01:12:26;;;;;;;21.50;10.43;;;4.20;99.90;;;;;;5030074;28;20029;-72
2021/04/10 01:15:12;;;;;;;;;;;4.20;99.90;;;;;;5036461;28;20397;-72
2021/04/10 01:17:51;;;;;;;22.05;10.45;;;4.20;99.90;;;;;;5048873;28;19982;-73
2021/04/10 01:20:26;;;;;;;23.30;11.45;;;4.20;99.90;;;;;;5049093;28;20045;-70
2021/04/10 01:23:39;;;;;;;16.10;10.15;;;4.20;99.90;;;;;;5049007;28;20063;-70
2021/04/10 01:26:34;;;;;;;21.35;10.95;;;4.20;99.90;;;;;;5040096;28;20051;-72
2021/04/10 01:29:08;;;;;;;21.98;11.68;;;4.20;99.90;;;;;;5008063;28;20052;-71
2021/04/10 01:31:38;;;;;;;22.08;11.77;;;4.10;99.90;;;;;;5050792;28;20487;-72
2021/04/10 01:34:10;;;;;;;23.52;12.38;;;4.00;99.90;;;;;;5052339;28;20366;-72
2021/04/10 01:36:39;;;;;;;21.33;11.93;;;4.00;99.90;;;;;;5052433;28;20040;-71
2021/04/10 01:39:09;;;;;;;19.35;11.75;;;4.10;99.90;;;;;;5052317;28;20032;-72
2021/04/10 01:41:38;;;;;;;18.40;10.77;;;4.00;99.90;;;;;;5051411;28;20427;-73
2021/04/10 01:44:05;;;;;;;24.48;12.57;;;4.10;99.90;;;;;;5052217;28;20047;-70
2021/04/10 01:46:32;;;;;;;24.95;12.40;;;4.00;99.90;;;;;;5033132;28;20045;-74
2021/04/10 01:48:59;;;;;;;21.88;11.73;;;4.00;99.90;;;;;;5031764;28;20052;-74
2021/04/10 01:51:26;;;;;;;17.25;11.00;;;3.90;99.90;;;;;;5031897;28;20043;-74
2021/04/10 01:53:52;;;;;;;21.08;12.02;;;4.00;99.90;;;;;;5050024;28;20040;-72
2021/04/10 01:56:19;;;;;;;19.00;11.98;;;4.00;99.90;;;;;;5033764;28;20041;-72
2021/04/10 01:58:45;;;;;;;24.08;12.82;;;4.00;99.90;;;;;;5063291;28;20493;-73
2021/04/10 02:01:15;;;;;;;23.88;12.73;;;3.90;99.90;;;;;;5051579;28;20075;-74
2021/04/10 02:03:46;;;;;;;24.55;12.80;;;4.00;99.90;;;;;;5051751;28;20044;-73
2021/04/10 02:06:13;;;;;;;23.98;12.45;;;3.90;99.90;;;;;;5051534;28;20047;-73
2021/04/10 02:08:41;;;;;;;21.45;12.63;;;3.90;99.90;;;;;;5051784;28;20477;-71
2021/04/10 02:11:12;;;;;;;22.40;14.13;;;3.90;99.90;;;;;;5043813;28;20052;-72
2021/04/10 02:13:38;;;;;;;23.75;13.77;;;4.00;99.90;;;;;;5030868;28;20047;-74
2021/04/10 02:16:05;;;;;;;21.83;13.60;;;4.00;99.90;;;;;;5030719;28;20068;-73
2021/04/10 02:18:33;;;;;;;19.23;12.63;;;4.00;99.90;;;;;;5031744;28;20398;-71
2021/04/10 02:21:08;;;;;;;25.77;13.52;;;4.00;99.90;;;;;;5031996;28;20086;-71
2021/04/10 02:23:41;;;;;;;17.85;11.80;;;4.00;99.90;;;;;;5031632;28;20080;-72
2021/04/10 02:26:11;;;;;;;19.20;12.10;;;4.00;99.90;;;;;;5039900;28;20504;-73
2021/04/10 02:28:36;;;;;;;21.35;12.25;;;3.90;99.90;;;;;;5044402;28;20048;-72
2021/04/10 02:31:04;;;;;;;19.25;12.13;;;3.80;99.90;;;;;;5050078;28;20040;-73
2021/04/10 02:33:37;;;;;;;23.08;12.98;;;3.80;99.90;;;;;;5051396;28;20040;-74
2021/04/10 02:36:04;;;;;;;22.48;13.85;;;3.90;99.90;;;;;;5051356;28;20044;-72
2021/04/10 02:38:33;;;;;;;17.58;11.18;;;3.90;99.90;;;;;;5051167;28;20040;-75
2021/04/10 02:41:14;;;;;;;22.05;13.30;;;3.90;99.90;;;;;;5053417;28;20045;-72
2021/04/10 02:43:45;;;;;;;24.90;13.68;;;3.90;99.90;;;;;;5048417;28;20041;-73
2021/04/10 02:46:14;;;;;;;28.98;13.65;;;3.90;99.90;;;;;;5028432;28;20076;-71
2021/04/10 02:48:59;;;;;;;20.67;13.20;;;3.90;99.90;;;;;;5047677;28;20080;-74
2021/04/10 02:51:33;;;;;;;23.60;13.60;;;3.90;99.90;;;;;;5047623;28;20124;-71
2021/04/10 02:54:00;;;;;;;24.17;13.70;;;3.90;99.90;;;;;;5048649;28;20048;-72
2021/04/10 02:56:28;;;;;;;19.80;12.70;;;3.90;99.90;;;;;;5030146;28;20032;-71
2021/04/10 02:58:56;;;;;;;26.23;14.75;;;3.90;99.90;;;;;;5035943;28;20043;-74
2021/04/10 03:01:23;;;;;;;22.40;13.05;;;3.90;99.90;;;;;;5029526;28;20033;-72
2021/04/10 03:03:50;;;;;;;17.67;11.93;;;3.80;99.90;;;;;;5030608;28;20045;-71
2021/04/10 03:06:17;;;;;;;22.60;12.45;;;3.90;99.90;;;;;;5031202;28;20086;-72
2021/04/10 03:08:46;;;;;;;21.50;13.23;;;3.90;99.90;;;;;;5030790;28;20111;-71
2021/04/10 03:11:15;;;;;;;21.98;13.75;;;3.80;99.90;;;;;;5030383;28;20048;-72
2021/04/10 03:13:41;;;;;;;26.45;13.50;;;3.80;99.90;;;;;;5030097;28;20572;-72
2021/04/10 03:16:07;;;;;;;20.38;13.15;;;3.80;99.90;;;;;;5030291;28;20177;-70
2021/04/10 03:18:35;;;;;;;21.50;12.73;;;3.80;99.90;;;;;;5030773;28;20128;-73
2021/04/10 03:21:03;;;;;;;20.10;12.13;;;3.70;99.90;;;;;;5045542;28;20087;-73
2021/04/10 03:23:30;;;;;;;26.02;13.90;;;3.70;99.90;;;;;;5030599;28;20040;-74
2021/04/10 03:25:58;;;;;;;19.75;12.85;;;3.70;99.90;;;;;;5043448;28;20036;-73
2021/04/10 03:28:27;;;;;;;28.50;13.88;;;3.70;99.90;;;;;;5041296;28;20033;-74
2021/04/10 03:30:53;;;;;;;20.95;14.30;;;3.70;99.90;;;;;;5050340;28;20115;-73
2021/04/10 03:33:19;;;;;;;21.23;13.82;;;3.70;99.90;;;;;;5050426;28;20116;-69
2021/04/10 03:35:45;;;;;;;21.02;12.45;;;3.70;99.90;;;;;;5050067;28;20041;-71
2021/04/10 03:38:11;;;;;;;19.52;12.98;;;3.80;99.90;;;;;;5050415;28;20489;-73
2021/04/10 03:40:37;;;;;;;22.88;12.18;;;3.70;99.90;;;;;;5051581;28;20201;-71
2021/04/10 03:43:03;;;;;;;21.45;13.75;;;3.70;99.90;;;;;;5072360;28;20049;-71
2021/04/10 03:45:29;;;;;;;24.70;12.88;;;3.70;99.90;;;;;;5061747;28;20041;-74
2021/04/10 03:47:56;;;;;;;21.80;13.18;;;3.60;99.90;;;;;;5042845;28;20037;-73
2021/04/10 03:50:22;;;;;;;20.90;13.60;;;3.60;99.90;;;;;;5034688;28;20581;-71
2021/04/10 03:52:48;;;;;;;22.73;13.55;;;3.70;99.90;;;;;;5033511;28;20407;-74
2021/04/10 03:55:15;;;;;;;22.45;12.82;;;3.60;99.90;;;;;;5035770;28;20136;-71
2021/04/10 03:57:41;;;;;;;21.58;14.52;;;3.60;99.90;;;;;;5040216;28;20036;-71
2021/04/10 04:00:09;;;;;;;22.80;14.57;;;3.70;99.90;;;;;;5047524;28;20123;-70
2021/04/10 04:02:35;;;;;;;21.13;13.27;;;3.60;99.90;;;;;;5032808;28;20102;-71
2021/04/10 04:05:01;;;;;;;23.17;14.73;;;3.60;99.90;;;;;;5042392;28;20049;-70
2021/04/10 04:07:27;;;;;;;19.65;12.77;;;3.70;99.90;;;;;;5033009;28;20040;-80
2021/04/10 04:09:52;;;;;;;20.48;12.38;;;3.70;99.90;;;;;;5042474;28;20040;-70
2021/04/10 04:12:19;;;;;;;21.77;13.38;;;3.70;99.90;;;;;;5033902;28;20044;-72
2021/04/10 04:14:44;;;;;;;17.33;12.18;;;3.70;99.90;;;;;;5038737;28;20044;-74
2021/04/10 04:17:10;;;;;;;22.77;13.85;;;3.80;99.90;;;;;;5036311;28;20094;-74
2021/04/10 04:19:36;;;;;;;24.10;13.50;;;3.80;99.90;;;;;;5034245;28;20037;-71
2021/04/10 04:22:02;;;;;;;22.63;13.55;;;3.70;99.90;;;;;;5032834;28;20041;-70
2021/04/10 04:24:29;;;;;;;23.67;13.75;;;3.70;99.90;;;;;;5034196;28;20060;-74
2021/04/10 04:26:56;;;;;;;21.33;14.40;;;3.60;99.90;;;;;;5035336;28;20115;-71
2021/04/10 04:29:22;;;;;;;20.70;13.82;;;3.60;99.90;;;;;;5044900;28;20140;-72
2021/04/10 04:31:48;;;;;;;22.98;14.32;;;3.60;99.90;;;;;;5053455;28;20040;-75
2021/04/10 04:34:14;;;;;;;27.15;16.08;;;3.70;99.90;;;;;;5054411;28;20044;-74
2021/04/10 04:36:41;;;;;;;20.30;13.25;;;3.70;99.90;;;;;;5070966;28;20036;-73
2021/04/10 04:39:12;;;;;;;21.98;13.43;;;3.70;99.90;;;;;;5070380;28;20036;-72
2021/04/10 04:41:38;;;;;;;21.83;13.68;;;3.70;99.90;;;;;;5053640;28;20037;-73
2021/04/10 04:44:04;;;;;;;27.05;15.55;;;3.70;99.90;;;;;;5071560;28;20139;-72
2021/04/10 04:46:30;;;;;;;23.90;14.73;;;3.70;99.90;;;;;;5034902;28;20087;-72
2021/04/10 04:48:56;;;;;;;23.27;14.27;;;3.60;99.90;;;;;;5035646;28;20041;-73
2021/04/10 04:51:22;;;;;;;21.67;14.30;;;3.60;99.90;;;;;;5034342;28;20040;-71
2021/04/10 04:53:47;;;;;;;;;;;3.60;99.90;;;;;;5033939;28;20091;-70
2021/04/10 04:56:13;;;;;;;25.92;14.93;;;3.70;99.90;;;;;;5033391;28;20008;-75
2021/04/10 04:58:40;;;;;;;21.63;14.02;;;3.70;99.90;;;;;;5059070;28;20132;-72
2021/04/10 05:01:07;;;;;;;24.27;14.48;;;3.70;99.90;;;;;;5033732;28;20504;-74
2021/04/10 05:03:33;;;;;;;29.45;13.90;;;3.70;99.90;;;;;;5033769;28;20037;-73
2021/04/10 05:05:58;;;;;;;24.00;14.88;;;3.70;99.90;;;;;;5033619;28;20041;-74
2021/04/10 05:08:25;;;;;;;20.98;13.88;;;3.70;99.90;;;;;;5033403;28;20083;-73
2021/04/10 05:10:51;;;;;;;25.92;15.55;;;3.80;99.90;;;;;;5033727;28;20090;-73
2021/04/10 05:13:17;;;;;;;23.52;14.75;;;3.80;99.90;;;;;;5050150;28;20033;-72
2021/04/10 05:15:42;;;;;;;22.10;14.93;;;3.80;99.90;;;;;;5038108;28;20036;-74
2021/04/10 05:18:08;;;;;;;24.20;13.90;;;3.80;99.90;;;;;;5041531;28;20071;-73
2021/04/10 05:20:34;;;;;;;24.58;16.13;;;3.80;99.90;;;;;;5033717;28;20059;-74
2021/04/10 05:23:00;;;;;;;21.88;13.38;;;3.90;99.90;;;;;;5033058;28;20048;-74
2021/04/10 05:25:26;;;;;;;23.48;14.77;;;3.80;99.90;;;;;;5036345;28;20037;-73
2021/04/10 05:27:51;;;;;;;;;;;3.90;99.90;;;;;;5040197;28;20569;-73
2021/04/10 05:30:19;;;;;;;24.55;14.15;;;3.90;99.90;;;;;;5054975;28;19998;-74
2021/04/10 05:32:44;;;;;;;23.20;14.68;;;3.90;99.90;;;;;;5032412;28;20116;-71
2021/04/10 05:35:11;;;;;;;22.52;14.30;;;4.00;99.90;;;;;;5033166;28;20132;-71
2021/04/10 05:37:37;;;;;;;29.77;16.52;;;4.00;99.90;;;;;;5032835;28;20064;-72
2021/04/10 05:40:04;;;;;;;25.55;13.95;;;3.90;99.90;;;;;;5032579;28;20041;-72
2021/04/10 05:42:31;;;;;;;27.75;15.85;;;3.90;99.90;;;;;;5031832;28;20048;-73
2021/04/10 05:44:57;;;;;;;28.58;17.08;;;4.00;99.90;;;;;;5034667;28;20043;-74
2021/04/10 05:47:24;;;;;;;24.90;16.33;;;4.00;99.90;;;;;;5032738;28;20123;-72
2021/04/10 05:49:50;;;;;;;27.55;14.85;;;4.00;99.90;;;;;;5037234;28;20045;-71
2021/04/10 05:52:16;;;;;;;24.50;15.60;;;4.00;99.90;;;;;;5031962;28;20037;-71
2021/04/10 05:54:42;;;;;;;27.23;16.77;;;4.00;99.90;;;;;;5032279;28;20097;-73
2021/04/10 05:57:08;;;;;;;;;;;4.10;99.90;;;;;;5032864;28;20119;-72
2021/04/10 05:59:34;;;;;;;24.23;15.68;;;4.10;99.90;;;;;;5043668;28;19981;-73
2021/04/10 06:02:05;;;;;;;24.95;16.25;;;4.00;99.90;;;;;;5051024;28;20052;-71
2021/04/10 06:04:33;;;;;;;25.40;16.13;;;4.10;99.90;;;;;;5050921;28;20053;-75
2021/04/10 06:06:59;;;;;;;26.10;16.98;;;4.00;99.90;;;;;;5070065;28;20044;-74
2021/04/10 06:09:24;;;;;;;27.92;17.40;;;4.10;99.90;;;;;;5054839;28;20086;-72
2021/04/10 06:11:50;;;;;;;28.98;17.48;;;4.00;99.90;;;;;;5049180;28;20070;-73
2021/04/10 06:14:16;;;;;;;30.85;18.05;;;4.10;99.90;;;;;;5048302;28;20093;-69
2021/04/10 06:16:43;;;;;;;29.38;18.13;;;4.10;99.90;;;;;;5047933;28;20048;-72
2021/04/10 06:19:09;;;;;;;28.55;17.33;;;4.20;99.90;;;;;;5048759;28;20048;-72
2021/04/10 06:21:36;;;;;;;28.98;18.42;;;4.20;99.90;;;;;;5048465;28;20040;-71
2021/04/10 06:24:04;;;;;;;25.88;17.42;;;4.20;99.90;;;;;;5048329;28;20045;-75
2021/04/10 06:26:29;;;;;;;30.13;18.60;;;4.30;99.90;;;;;;5040535;28;20051;-75
2021/04/10 06:28:55;;;;;;;31.42;18.13;;;4.30;99.90;;;;;;5047009;28;20090;-70
2021/04/10 06:31:21;;;;;;;29.17;17.92;;;4.40;99.90;;;;;;5031805;28;20040;-71
2021/04/10 06:33:47;;;;;;;28.70;18.33;;;4.40;99.90;;;;;;5034900;28;20049;-75
2021/04/10 06:36:12;;;;;;;;;;;4.50;99.90;;;;;;5034096;28;20067;-74
2021/04/10 06:38:39;;;;;;;23.73;16.38;;;4.40;99.90;;;;;;5028757;28;19921;-75
2021/04/10 06:41:05;;;;;;;26.90;17.08;;;4.50;99.90;;;;;;5031323;28;20119;-73
2021/04/10 06:43:31;;;;;;;25.90;16.38;;;4.50;99.90;;;;;;5035773;28;20132;-73
2021/04/10 06:46:01;;;;;;;26.35;17.33;;;4.60;99.90;;;;;;5034773;28;20036;-74
2021/04/10 06:48:29;;;;;;;30.40;17.65;;;4.60;99.90;;;;;;5039185;28;20310;-74
2021/04/10 06:50:59;;;;;;;29.25;17.92;;;4.60;99.90;;;;;;5031331;28;20370;-71
2021/04/10 06:53:25;;;;;;;28.52;17.02;;;4.60;99.90;;;;;;5031660;28;20045;-71
2021/04/10 06:55:54;;;;;;;30.70;19.10;;;4.60;99.90;;;;;;5031911;28;20033;-71
2021/04/10 06:58:42;;;;;;;31.30;18.48;;;4.60;99.90;;;;;;5031627;28;20689;-71
2021/04/10 07:01:08;;;;;;;30.17;19.90;;;4.70;99.90;;;;;;5045470;28;20045;-75
2021/04/10 07:03:35;;;;;;;29.02;18.80;;;4.70;99.90;;;;;;5033177;28;20072;-72
2021/04/10 07:06:01;;;;;;;33.08;17.60;;;4.80;99.90;;;;;;5048676;28;20109;-74
2021/04/10 07:08:27;;;;;;;34.33;20.90;;;4.80;99.90;;;;;;5033526;28;20045;-72
2021/04/10 07:10:56;;;;;;;29.98;18.83;;;4.80;99.90;;;;;;5031393;28;20041;-71
2021/04/10 07:13:21;;;;;;;32.05;20.40;;;4.80;99.90;;;;;;5034125;28;20041;-72
2021/04/10 07:15:47;;;;;;;31.33;19.35;;;4.90;99.90;;;;;;5031063;28;20043;-75
2021/04/10 07:18:13;;;;;;;31.08;19.27;;;5.00;99.90;;;;;;5049789;28;20474;-73
2021/04/10 07:20:39;;;;;;;27.90;20.17;;;5.10;99.90;;;;;;5028667;28;20080;-74
2021/04/10 07:23:08;;;;;;;;;;;5.10;99.90;;;;;;5028416;28;20044;-74
2021/04/10 07:25:36;;;;;;;23.27;15.73;;;5.20;99.90;;;;;;5039256;28;19921;-71
2021/04/10 07:28:21;;;;;;;29.17;18.67;;;5.30;99.90;;;;;;5042036;28;20048;-73
2021/04/10 07:31:01;;;;;;;32.28;19.95;;;5.50;99.90;;;;;;5022591;28;20389;-71
2021/04/10 07:33:32;;;;;;;30.75;18.77;;;5.50;99.90;;;;;;5031222;28;20043;-71
2021/04/10 07:35:59;;;;;;;32.15;20.55;;;5.60;99.90;;;;;;5049045;28;20068;-72
2021/04/10 07:38:34;;;;;;;28.80;18.30;;;5.60;99.90;;;;;;5048415;28;20060;-70
2021/04/10 07:41:03;;;;;;;40.47;21.23;;;5.60;99.90;;;;;;5031393;28;20040;-71
2021/04/10 07:43:35;;;;;;;33.90;20.88;;;5.60;99.90;;;;;;5048548;28;20044;-71
2021/04/10 07:46:21;;;;;;;36.53;21.45;;;5.60;99.90;;;;;;5031160;28;20500;-75
2021/04/10 07:49:04;;;;;;;31.83;20.45;;;5.70;99.90;;;;;;5049344;28;20076;-73
2021/04/10 07:51:33;;;;;;;30.38;19.38;;;5.70;99.90;;;;;;5032419;28;20087;-73
2021/04/10 07:53:59;;;;;;;28.85;18.90;;;5.80;99.90;;;;;;5031774;28;20547;-71
2021/04/10 07:56:46;;;;;;;33.92;20.75;;;5.80;99.90;;;;;;5034345;28;20041;-73
2021/04/10 07:59:11;;;;;;;35.33;21.13;;;5.80;99.90;;;;;;5038864;28;20542;-74
2021/04/10 08:01:37;;;;;;;;;;;5.80;99.90;;;;;;5030797;28;20362;-72
2021/04/10 08:04:13;;;;;;;28.20;17.83;;;6.00;99.90;;;;;;5031449;28;19921;-72
2021/04/10 08:07:00;;;;;;;;;;;6.10;99.90;;;;;;5031243;28;20079;-71
2021/04/10 08:09:33;;;;;;;33.40;20.20;;;6.30;99.90;;;;;;5030521;28;19916;-71
2021/04/10 08:12:00;;;;;;;35.78;22.02;;;6.50;99.90;;;;;;5030513;28;20044;-73
2021/04/10 08:14:38;;;;;;;38.13;24.05;;;6.70;99.90;;;;;;5030638;28;20056;-74
2021/04/10 08:17:04;;;;;;;36.80;22.10;;;6.80;99.90;;;;;;5030147;28;20500;-73
2021/04/10 08:19:31;;;;;;;;;;;6.90;99.90;;;;;;5031442;28;20520;-72
2021/04/10 08:21:56;;;;;;;36.90;23.17;;;7.00;99.90;;;;;;5030181;28;19920;-75
2021/04/10 08:24:22;;;;;;;;;;;7.10;99.90;;;;;;5031124;28;20045;-71
2021/04/10 08:26:50;;;;;;;38.28;23.92;;;7.40;99.90;;;;;;5030897;28;19995;-72
2021/04/10 08:29:16;;;;;;;37.13;21.83;;;7.60;99.90;;;;;;5049526;28;20047;-73
2021/04/10 08:31:42;;;;;;;37.13;23.13;;;7.90;99.90;;;;;;5032519;28;20091;-74
2021/04/10 08:34:08;;;;;;;;;;;8.20;99.90;;;;;;5034847;28;20049;-72
2021/04/10 08:36:38;;;;;;;34.30;20.98;;;8.20;99.90;;;;;;5051744;28;19923;-71
2021/04/10 08:39:04;;;;;;;38.22;23.88;;;8.40;99.90;;;;;;5031154;28;20048;-71
2021/04/10 08:41:31;;;;;;;34.17;22.80;;;8.70;99.90;;;;;;5031732;28;20076;-74
2021/04/10 08:43:59;;;;;;;33.13;22.50;;;8.70;99.90;;;;;;5033983;28;20053;-73
2021/04/10 08:46:25;;;;;;;33.72;22.13;;;8.70;99.90;;;;;;5030328;28;20044;-72
2021/04/10 08:48:55;;;;;;;35.75;22.17;;;8.70;99.90;;;;;;5032266;28;20049;-73
2021/04/10 08:51:26;;;;;;;39.90;24.00;;;8.50;99.90;;;;;;5032935;28;20120;-73
2021/04/10 08:53:54;;;;;;;37.45;23.05;;;8.40;99.90;;;;;;5038228;28;20052;-71
2021/04/10 08:56:23;;;;;;;33.35;22.60;;;8.30;99.90;;;;;;5033480;28;20049;-70
2021/04/10 08:58:49;;;;;;;34.97;23.33;;;8.20;99.90;;;;;;5041584;28;20033;-72
2021/04/10 09:01:25;;;;;;;43.00;27.65;;;8.00;99.90;;;;;;5032236;28;20119;-72
2021/04/10 09:03:53;;;;;;;59.53;39.08;;;7.90;99.90;;;;;;5032144;28;20092;-72
2021/04/10 09:06:22;;;;;;;47.78;31.98;;;7.80;99.90;;;;;;5032842;28;20405;-70
2021/04/10 09:08:48;;;;;;;36.55;23.58;;;7.80;99.90;;;;;;5032708;28;20151;-73
2021/04/10 09:11:21;;;;;;;42.45;24.58;;;7.80;99.90;;;;;;5032022;28;20052;-69
2021/04/10 09:13:49;;;;;;;31.83;22.45;;;7.70;99.90;;;;;;5032305;28;20072;-70
2021/04/10 09:16:31;;;;;;;34.38;21.50;;;8.00;99.90;;;;;;5031681;28;20048;-70
2021/04/10 09:19:06;;;;;;;32.60;21.90;;;8.20;99.90;;;;;;5032094;28;20037;-71
2021/04/10 09:21:39;;;;;;;36.45;22.50;;;8.30;99.90;;;;;;5032356;28;20094;-71
2021/04/10 09:24:27;;;;;;;32.28;21.42;;;8.10;99.90;;;;;;5032325;28;20037;-70
2021/04/10 09:26:58;;;;;;;34.67;22.25;;;8.00;99.90;;;;;;5017626;28;20087;-72
2021/04/10 09:29:26;;;;;;;33.88;23.50;;;7.90;99.90;;;;;;5043091;28;20068;-71
2021/04/10 09:32:00;;;;;;;48.05;31.45;;;7.80;99.90;;;;;;5022534;28;20041;-72
2021/04/10 09:34:49;;;;;;;35.22;22.88;;;7.90;99.90;;;;;;5034109;28;20045;-71
2021/04/10 09:37:20;;;;;;;33.25;21.83;;;8.10;99.90;;;;;;5038781;28;20044;-72
2021/04/10 09:40:09;;;;;;;34.83;22.63;;;8.30;99.90;;;;;;5032953;28;20041;-71
2021/04/10 09:42:37;;;;;;;34.70;23.17;;;8.10;99.90;;;;;;5032519;28;20478;-69
2021/04/10 09:45:22;;;;;;;35.78;22.17;;;8.10;99.90;;;;;;5032247;28;20041;-72
2021/04/10 09:48:06;;;;;;;45.83;29.38;;;8.40;99.90;;;;;;5033224;28;20037;-71
2021/04/10 09:50:42;;;;;;;34.08;22.02;;;8.60;99.90;;;;;;5033045;28;20033;-71
2021/04/10 09:53:27;;;;;;;28.63;19.05;;;8.70;99.90;;;;;;5031970;28;20044;-69
2021/04/10 09:56:05;;;;;;;37.00;24.67;;;8.90;99.90;;;;;;5032306;28;20073;-72
2021/04/10 09:58:45;;;;;;;29.02;19.15;;;9.10;99.90;;;;;;5039809;28;20037;-69
2021/04/10 10:01:21;;;;;;;31.88;20.25;;;9.30;99.90;;;;;;5038944;28;20044;-71
2021/04/10 10:03:51;;;;;;;28.88;18.52;;;9.50;99.90;;;;;;5052484;28;20080;-73
2021/04/10 10:06:20;;;;;;;25.30;18.17;;;9.50;99.90;;;;;;5051530;28;20040;-72
2021/04/10 10:08:53;;;;;;;32.60;20.80;;;9.60;99.90;;;;;;5052254;28;20048;-71
2021/04/10 10:11:20;;;;;;;27.88;18.02;;;9.70;99.90;;;;;;5051387;28;20048;-73
2021/04/10 10:13:50;;;;;;;29.58;18.05;;;9.70;99.90;;;;;;5052045;28;20132;-70
2021/04/10 10:16:31;;;;;;;27.08;17.27;;;9.50;99.90;;;;;;5032991;28;20043;-70
2021/04/10 10:19:03;;;;;;;28.23;18.42;;;9.30;99.90;;;;;;5044325;28;20033;-69
2021/04/10 10:21:41;;;;;;;27.65;18.80;;;9.20;99.90;;;;;;5048350;28;20044;-69
2021/04/10 10:24:09;;;;;;;35.50;23.88;;;9.30;99.90;;;;;;5049216;28;20544;-72
2021/04/10 10:26:41;;;;;;;33.65;19.77;;;9.00;99.90;;;;;;5047766;28;20055;-70
2021/04/10 10:29:11;;;;;;;29.23;18.50;;;9.00;99.90;;;;;;5039396;28;20032;-72
2021/04/10 10:31:44;;;;;;;28.58;17.98;;;8.90;99.90;;;;;;5020193;28;20049;-69
2021/04/10 10:34:13;;;;;;;30.02;17.80;;;8.90;99.90;;;;;;5031285;28;20090;-71
2021/04/10 10:36:51;;;;;;;29.83;19.38;;;9.00;99.90;;;;;;5031833;28;20063;-72
2021/04/10 10:39:35;;;;;;;;;;;9.00;99.90;;;;;;5032774;28;20068;-69
2021/04/10 10:42:05;;;;;;;30.92;18.42;;;9.10;99.90;;;;;;5031350;28;19917;-72
2021/04/10 10:44:36;;;;;;;28.60;17.92;;;8.90;99.90;;;;;;5030462;28;20044;-72
2021/04/10 10:47:09;;;;;;;26.73;17.08;;;8.80;99.90;;;;;;5028185;28;20059;-71
2021/04/10 10:49:35;;;;;;;26.45;16.98;;;8.70;99.90;;;;;;5030795;28;20037;-70
2021/04/10 10:52:01;;;;;;;26.48;16.75;;;8.60;99.90;;;;;;5047935;28;20036;-70
2021/04/10 10:54:30;;;;;;;;;;;8.80;99.90;;;;;;5031378;28;20059;-72
2021/04/10 10:56:59;;;;;;;24.77;16.65;;;8.70;99.90;;;;;;5030444;28;19920;-70
2021/04/10 10:59:29;;;;;;;28.30;17.00;;;8.50;99.90;;;;;;5040939;28;20140;-69
2021/04/10 11:01:56;;;;;;;25.02;16.67;;;8.50;99.90;;;;;;5039469;28;20036;-72
2021/04/10 11:04:28;;;;;;;29.42;18.27;;;8.60;99.90;;;;;;5050306;28;20093;-72
2021/04/10 11:07:01;;;;;;;26.67;18.15;;;8.80;99.90;;;;;;5050794;28;20044;-71
2021/04/10 11:09:34;;;;;;;30.58;16.27;;;8.60;99.90;;;;;;5051111;28;20044;-71
2021/04/10 11:12:11;;;;;;;27.38;16.83;;;8.70;99.90;;;;;;5051012;28;20033;-72
2021/04/10 11:14:43;;;;;;;25.38;14.82;;;8.80;99.90;;;;;;5063926;28;20116;-71
2021/04/10 11:17:26;;;;;;;21.80;14.80;;;9.00;99.90;;;;;;5038267;28;20079;-72
2021/04/10 11:19:52;;;;;;;31.55;20.35;;;9.20;99.90;;;;;;5031265;28;20048;-72
2021/04/10 11:22:24;;;;;;;35.63;22.60;;;9.40;99.90;;;;;;5031183;28;20044;-69
2021/04/10 11:24:52;;;;;;;26.75;17.67;;;9.20;99.90;;;;;;5050718;28;20132;-73
2021/04/10 11:27:20;;;;;;;32.53;20.30;;;9.00;99.90;;;;;;5033776;28;20132;-71
2021/04/10 11:30:00;;;;;;;23.80;16.90;;;8.90;99.90;;;;;;5045415;28;20111;-70
2021/04/10 11:32:32;;;;;;;27.20;18.48;;;8.60;99.90;;;;;;5029994;28;20036;-71
2021/04/10 11:35:22;;;;;;;24.73;16.33;;;8.40;99.90;;;;;;5049193;28;20051;-70
2021/04/10 11:37:50;;;;;;;28.75;18.98;;;8.20;99.90;;;;;;5030578;28;20215;-70
2021/04/10 11:40:34;;;;;;;29.73;18.90;;;8.00;99.90;;;;;;5030747;28;20052;-72
2021/04/10 11:43:06;;;;;;;28.70;18.70;;;7.90;99.90;;;;;;5020299;28;20033;-70
2021/04/10 11:45:47;;;;;;;30.95;19.52;;;8.00;99.90;;;;;;5022262;28;20715;-69
2021/04/10 11:48:18;;;;;;;28.00;19.30;;;8.00;99.90;;;;;;5040317;28;20082;-70
2021/04/10 11:50:45;;;;;;;29.98;17.55;;;7.90;99.90;;;;;;5051042;28;20037;-72
2021/04/10 11:53:16;;;;;;;;;;;8.10;99.90;;;;;;5051040;28;20055;-72
2021/04/10 11:55:50;;;;;;;34.05;22.67;;;8.10;99.90;;;;;;5065480;28;19991;-71
2021/04/10 11:58:29;;;;;;;30.08;18.30;;;8.30;99.90;;;;;;5038607;28;20048;-72
2021/04/10 12:01:07;;;;;;;28.10;18.80;;;8.30;99.90;;;;;;5045015;28;20032;-69
2021/04/10 12:03:45;;;;;;;27.05;18.33;;;8.40;99.90;;;;;;5051847;28;20037;-72
2021/04/10 12:06:28;;;;;;;26.63;16.40;;;8.40;99.90;;;;;;5054032;28;20049;-72
2021/04/10 12:08:57;;;;;;;27.75;18.50;;;8.40;99.90;;;;;;5054132;28;20613;-72
2021/04/10 12:11:31;;;;;;;27.75;16.63;;;8.10;99.90;;;;;;5071245;28;20147;-72
2021/04/10 12:14:00;;;;;;;29.40;19.80;;;8.10;99.90;;;;;;5032250;28;20071;-71
2021/04/10 12:16:30;;;;;;;29.83;19.83;;;8.10;99.90;;;;;;5031815;28;20055;-72
2021/04/10 12:18:56;;;;;;;33.03;22.13;;;8.10;99.90;;;;;;5046057;28;20390;-72
2021/04/10 12:21:23;;;;;;;24.50;17.90;;;8.20;99.90;;;;;;5029203;28;20064;-71
2021/04/10 12:23:49;;;;;;;23.17;16.13;;;8.40;99.90;;;;;;5044874;28;20048;-71
2021/04/10 12:26:14;;;;;;;;;;;8.40;99.90;;;;;;5051072;28;20049;-69
2021/04/10 12:28:40;;;;;;;20.25;15.32;;;8.30;99.90;;;;;;5038034;28;19921;-69
2021/04/10 12:31:10;;;;;;;;;;;8.30;99.90;;;;;;5037226;28;20064;-72
2021/04/10 12:33:38;;;;;;;22.77;15.65;;;8.20;99.90;;;;;;5033722;28;19975;-72
2021/04/10 12:36:14;;;;;;;19.85;15.38;;;8.10;99.90;;;;;;5033456;28;20033;-73
2021/04/10 12:38:49;;;;;;;21.58;15.32;;;8.10;99.90;;;;;;5034110;28;20041;-71
2021/04/10 12:41:19;;;;;;;21.30;14.00;;;7.90;99.90;;;;;;5040489;28;20461;-72
2021/04/10 12:43:45;;;;;;;22.05;14.70;;;7.80;99.90;;;;;;5033747;28;20088;-70
2021/04/10 12:46:13;;;;;;;;;;;7.80;99.90;;;;;;5051250;28;20033;-72
2021/04/10 12:48:41;;;;;;;18.63;13.15;;;7.80;99.90;;;;;;5033723;28;19920;-72
2021/04/10 12:51:10;;;;;;;18.52;12.82;;;7.90;99.90;;;;;;5034162;28;20051;-70
2021/04/10 12:53:37;;;;;;;22.63;14.68;;;8.10;99.90;;;;;;5033878;28;20033;-73
2021/04/10 12:56:08;;;;;;;21.83;15.82;;;8.10;99.90;;;;;;5034314;28;20082;-72